createdAt,value
2023-04-30T00:00:00.482Z,3
2023-04-30T00:04:00.468Z,3
2023-04-30T00:08:00.496Z,4
2023-04-30T00:12:00.439Z,4
2023-04-30T00:16:00.495Z,4
2023-04-30T00:20:00.438Z,3
2023-04-30T00:24:00.468Z,4
2023-04-30T00:28:00.436Z,3
2023-04-30T00:32:00.498Z,3
2023-04-30T00:36:00.449Z,3
2023-04-30T00:40:00.494Z,3
2023-04-30T00:44:00.437Z,2
2023-04-30T00:48:00.492Z,2
2023-04-30T00:52:00.443Z,2
2023-04-30T00:56:00.468Z,3
2023-04-30T01:00:00.430Z,2
2023-04-30T01:04:00.452Z,2
2023-04-30T01:08:00.439Z,2
2023-04-30T01:12:00.455Z,3
2023-04-30T01:16:00.555Z,3
2023-04-30T01:20:00.469Z,3
2023-04-30T01:24:00.459Z,3
2023-04-30T01:28:00.454Z,4
2023-04-30T01:32:00.445Z,3
2023-04-30T01:36:00.453Z,3
2023-04-30T01:40:00.460Z,4
2023-04-30T01:44:00.459Z,4
2023-04-30T01:48:00.541Z,3
2023-04-30T01:52:00.439Z,3
2023-04-30T01:56:00.447Z,3
2023-04-30T02:00:00.433Z,3
2023-04-30T02:04:00.636Z,3
2023-04-30T02:08:00.448Z,3
2023-04-30T02:12:00.435Z,3
2023-04-30T02:16:00.474Z,3
2023-04-30T02:20:00.426Z,2
2023-04-30T02:24:00.439Z,3
2023-04-30T02:28:00.440Z,2
2023-04-30T02:32:00.460Z,2
2023-04-30T02:36:00.457Z,2
2023-04-30T02:40:00.424Z,3
2023-04-30T02:44:00.447Z,2
2023-04-30T02:48:00.474Z,3
2023-04-30T02:52:00.463Z,3
2023-04-30T02:56:00.446Z,2
2023-04-30T03:00:00.449Z,3
2023-04-30T03:04:00.457Z,2
2023-04-30T03:08:00.416Z,2
2023-04-30T03:12:00.448Z,3
2023-04-30T03:16:00.541Z,2
2023-04-30T03:20:00.457Z,3
2023-04-30T03:24:00.439Z,3
2023-04-30T03:28:00.460Z,3
2023-04-30T03:32:00.484Z,3
2023-04-30T03:36:00.429Z,3
2023-04-30T03:40:00.447Z,2
2023-04-30T03:44:00.473Z,2
2023-04-30T03:48:00.465Z,3
2023-04-30T03:52:00.719Z,3
2023-04-30T03:56:00.431Z,2
2023-04-30T04:00:00.481Z,3
2023-04-30T04:04:00.442Z,2
2023-04-30T04:08:00.451Z,3
2023-04-30T04:12:00.464Z,3
2023-04-30T04:16:00.505Z,3
2023-04-30T04:20:00.446Z,3
2023-04-30T04:24:00.446Z,3
2023-04-30T04:28:00.454Z,3
2023-04-30T04:32:00.584Z,3
2023-04-30T04:36:00.442Z,3
2023-04-30T04:40:00.445Z,4
2023-04-30T04:44:00.457Z,3
2023-04-30T04:48:00.482Z,4
2023-04-30T04:52:00.452Z,3
2023-04-30T04:56:00.421Z,3
2023-04-30T05:00:00.457Z,4
2023-04-30T05:04:00.601Z,3
2023-04-30T05:08:00.459Z,4
2023-04-30T05:12:00.459Z,3
2023-04-30T05:16:00.473Z,3
2023-04-30T05:20:00.453Z,3
2023-04-30T05:24:00.440Z,4
2023-04-30T05:28:00.440Z,3
2023-04-30T05:32:00.491Z,4
2023-04-30T05:36:00.445Z,3
2023-04-30T05:40:00.467Z,3
2023-04-30T05:44:00.448Z,3
2023-04-30T05:48:00.518Z,4
2023-04-30T05:52:00.476Z,4
2023-04-30T05:56:00.478Z,3
2023-04-30T06:00:00.443Z,3
2023-04-30T06:04:00.480Z,4
2023-04-30T06:08:00.490Z,4
2023-04-30T06:12:00.451Z,3
2023-04-30T06:16:00.531Z,4
2023-04-30T06:20:00.452Z,4
2023-04-30T06:24:00.458Z,4
2023-04-30T06:28:00.485Z,4
2023-04-30T06:32:00.436Z,3
2023-04-30T06:36:00.470Z,3
2023-04-30T06:40:00.461Z,4
2023-04-30T06:44:00.431Z,4
2023-04-30T06:48:00.600Z,4
2023-04-30T06:52:00.448Z,3
2023-04-30T06:56:00.466Z,3
2023-04-30T07:00:00.447Z,4
2023-04-30T07:04:00.517Z,4
2023-04-30T07:08:00.453Z,4
2023-04-30T07:12:00.456Z,4
2023-04-30T07:16:00.492Z,3
2023-04-30T07:20:00.453Z,4
2023-04-30T07:24:00.448Z,4
2023-04-30T07:28:00.444Z,4
2023-04-30T07:32:00.512Z,4
2023-04-30T07:36:00.462Z,4
2023-04-30T07:40:00.467Z,4
2023-04-30T07:44:00.455Z,4
2023-04-30T07:48:00.480Z,4
2023-04-30T07:52:00.493Z,4
2023-04-30T07:56:00.447Z,4
2023-04-30T08:00:00.475Z,4
2023-04-30T08:04:00.579Z,3
2023-04-30T08:08:00.458Z,3
2023-04-30T08:12:00.495Z,4
2023-04-30T08:16:00.488Z,3
2023-04-30T08:20:00.472Z,3
2023-04-30T08:24:00.479Z,3
2023-04-30T08:28:00.458Z,3
2023-04-30T08:32:00.491Z,3
2023-04-30T08:36:00.472Z,3
2023-04-30T08:40:00.456Z,3
2023-04-30T08:44:00.458Z,4
2023-04-30T08:48:00.515Z,3
2023-04-30T08:52:00.449Z,3
2023-04-30T08:56:00.415Z,2
2023-04-30T09:00:00.444Z,2
2023-04-30T09:04:00.489Z,3
2023-04-30T09:08:03.627Z,3
2023-04-30T09:12:00.429Z,2
2023-04-30T09:16:00.478Z,2
2023-04-30T09:20:00.415Z,2
2023-04-30T09:24:00.456Z,2
2023-04-30T09:28:00.417Z,2
2023-04-30T09:32:00.516Z,2
2023-04-30T09:36:00.430Z,2
2023-04-30T09:40:00.433Z,3
2023-04-30T09:44:00.441Z,2
2023-04-30T09:48:15.878Z,2
2023-04-30T09:52:00.453Z,2
2023-04-30T09:56:00.427Z,2
2023-04-30T10:00:00.472Z,2
2023-04-30T10:04:00.455Z,2
2023-04-30T10:08:00.440Z,3
2023-04-30T10:12:00.450Z,2
2023-04-30T10:16:00.445Z,1
2023-04-30T10:20:00.453Z,2
2023-04-30T10:24:00.434Z,2
2023-04-30T10:28:01.573Z,2
2023-04-30T10:32:00.477Z,3
2023-04-30T10:36:00.445Z,2
2023-04-30T10:40:00.450Z,2
2023-04-30T10:44:01.867Z,2
2023-04-30T10:48:00.517Z,2
2023-04-30T10:52:00.429Z,2
2023-04-30T10:56:00.569Z,2
2023-04-30T11:00:00.447Z,2
2023-04-30T11:04:00.448Z,2
2023-04-30T11:08:00.444Z,2
2023-04-30T11:12:00.435Z,1
2023-04-30T11:16:00.458Z,2
2023-04-30T11:20:00.440Z,1
2023-04-30T11:24:00.449Z,2
2023-04-30T11:28:00.452Z,2
2023-04-30T11:32:00.475Z,1
2023-04-30T11:36:00.480Z,2
2023-04-30T11:40:00.457Z,2
2023-04-30T11:44:00.442Z,2
2023-04-30T11:48:00.486Z,2
2023-04-30T11:52:00.449Z,2
2023-04-30T11:56:00.452Z,2
2023-04-30T12:00:00.444Z,2
2023-04-30T12:04:00.635Z,2
2023-04-30T12:08:00.435Z,2
2023-04-30T12:12:00.447Z,2
2023-04-30T12:16:00.432Z,2
2023-04-30T12:20:00.487Z,3
2023-04-30T12:24:02.176Z,2
2023-04-30T12:28:00.473Z,2
2023-04-30T12:32:00.489Z,2
2023-04-30T12:36:00.484Z,2
2023-04-30T12:40:00.454Z,2
2023-04-30T12:44:00.446Z,2
2023-04-30T12:48:00.500Z,2
2023-04-30T12:52:00.425Z,2
2023-04-30T12:56:00.467Z,2
2023-04-30T13:00:00.482Z,2
2023-04-30T13:04:00.605Z,2
2023-04-30T13:08:00.463Z,2
2023-04-30T13:12:00.432Z,2
2023-04-30T13:16:00.566Z,2
2023-04-30T13:20:00.452Z,2
2023-04-30T13:24:00.473Z,2
2023-04-30T13:28:00.489Z,2
2023-04-30T13:32:01.043Z,2
2023-04-30T13:36:00.457Z,2
2023-04-30T13:40:00.446Z,2
2023-04-30T13:44:00.454Z,2
2023-04-30T13:48:00.550Z,2
2023-04-30T13:52:01.002Z,2
2023-04-30T13:56:00.435Z,2
2023-04-30T14:00:00.579Z,2
2023-04-30T14:04:00.540Z,2
2023-04-30T14:08:00.463Z,2
2023-04-30T14:12:01.401Z,3
2023-04-30T14:16:00.450Z,2
2023-04-30T14:20:00.442Z,2
2023-04-30T14:24:00.447Z,2
2023-04-30T14:28:00.444Z,2
2023-04-30T14:32:00.856Z,3
2023-04-30T14:36:00.459Z,2
2023-04-30T14:40:00.431Z,3
2023-04-30T14:44:00.551Z,3
2023-04-30T14:48:02.457Z,2
2023-04-30T14:52:00.876Z,2
2023-04-30T14:56:00.442Z,2
2023-04-30T15:00:00.460Z,2
2023-04-30T15:04:00.453Z,2
2023-04-30T15:08:00.432Z,2
2023-04-30T15:12:00.874Z,2
2023-04-30T15:16:00.474Z,2
2023-04-30T15:20:00.476Z,2
2023-04-30T15:24:00.438Z,2
2023-04-30T15:28:00.649Z,2
2023-04-30T15:32:00.503Z,2
2023-04-30T15:36:00.455Z,2
2023-04-30T15:40:00.650Z,2
2023-04-30T15:44:00.444Z,2
2023-04-30T15:48:00.528Z,2
2023-04-30T15:52:00.758Z,2
2023-04-30T15:56:00.464Z,2
2023-04-30T16:00:00.485Z,2
2023-04-30T16:04:00.821Z,2
2023-04-30T16:08:00.457Z,2
2023-04-30T16:12:00.529Z,2
2023-04-30T16:16:00.481Z,2
2023-04-30T16:20:00.438Z,2
2023-04-30T16:24:00.460Z,2
2023-04-30T16:28:00.433Z,2
2023-04-30T16:32:00.528Z,2
2023-04-30T16:36:00.448Z,2
2023-04-30T16:40:00.473Z,2
2023-04-30T16:44:00.454Z,2
2023-04-30T16:48:00.522Z,2
2023-04-30T16:52:00.790Z,2
2023-04-30T16:56:00.467Z,2
2023-04-30T17:00:00.443Z,2
2023-04-30T17:04:00.492Z,2
2023-04-30T17:08:00.456Z,2
2023-04-30T17:12:00.443Z,2
2023-04-30T17:16:01.782Z,2
2023-04-30T17:20:00.464Z,3
2023-04-30T17:24:01.434Z,3
2023-04-30T17:28:00.437Z,3
2023-04-30T17:32:00.502Z,2
2023-04-30T17:36:00.464Z,3
2023-04-30T17:40:00.444Z,2
2023-04-30T17:44:00.446Z,2
2023-04-30T17:48:00.477Z,2
2023-04-30T17:52:00.446Z,2
2023-04-30T17:56:00.426Z,2
2023-04-30T18:00:00.434Z,3
2023-04-30T18:04:00.550Z,3
2023-04-30T18:08:00.442Z,3
2023-04-30T18:12:00.452Z,2
2023-04-30T18:16:00.497Z,3
2023-04-30T18:20:00.448Z,3
2023-04-30T18:24:00.455Z,3
2023-04-30T18:28:00.439Z,4
2023-04-30T18:32:00.556Z,4
2023-04-30T18:36:01.838Z,5
2023-04-30T18:40:00.506Z,5
2023-04-30T18:44:00.459Z,5
2023-04-30T18:48:00.457Z,8
2023-04-30T18:52:00.447Z,12
2023-04-30T18:56:00.452Z,19
2023-04-30T19:00:00.440Z,28
2023-04-30T19:04:00.458Z,21
2023-04-30T19:08:00.427Z,21
2023-04-30T19:12:00.430Z,34
2023-04-30T19:16:00.432Z,32
2023-04-30T19:20:00.460Z,27
2023-04-30T19:24:00.439Z,28
2023-04-30T19:28:00.453Z,29
2023-04-30T19:32:00.531Z,35
2023-04-30T19:36:00.448Z,41
2023-04-30T19:40:00.454Z,43
2023-04-30T19:44:00.476Z,41
2023-04-30T19:48:00.485Z,46
2023-04-30T19:52:00.440Z,46
2023-04-30T19:56:00.463Z,55
2023-04-30T20:00:00.439Z,57
2023-04-30T20:04:00.578Z,54
2023-04-30T20:08:00.432Z,50
2023-04-30T20:12:00.437Z,42
2023-04-30T20:16:01.479Z,39
2023-04-30T20:20:00.465Z,39
2023-04-30T20:24:00.437Z,38
2023-04-30T20:28:00.463Z,38
2023-04-30T20:32:00.575Z,41
2023-04-30T20:36:00.468Z,49
2023-04-30T20:40:00.439Z,52
2023-04-30T20:44:00.450Z,50
2023-04-30T20:48:00.634Z,40
2023-04-30T20:52:00.462Z,41
2023-04-30T20:56:00.449Z,38
2023-04-30T21:00:00.441Z,39
2023-04-30T21:04:00.478Z,38
2023-04-30T21:08:00.463Z,36
2023-04-30T21:12:00.449Z,34
2023-04-30T21:16:00.449Z,33
2023-04-30T21:20:00.552Z,34
2023-04-30T21:24:00.455Z,34
2023-04-30T21:28:00.485Z,32
2023-04-30T21:32:00.442Z,32
2023-04-30T21:36:00.448Z,31
2023-04-30T21:40:00.442Z,36
2023-04-30T21:44:00.450Z,37
2023-04-30T21:48:00.517Z,37
2023-04-30T21:52:00.461Z,42
2023-04-30T21:56:00.462Z,45
2023-04-30T22:00:00.450Z,53
2023-04-30T22:04:00.593Z,56
2023-04-30T22:08:00.455Z,53
2023-04-30T22:12:00.428Z,49
2023-04-30T22:16:00.463Z,52
2023-04-30T22:20:00.437Z,49
2023-04-30T22:24:00.439Z,52
2023-04-30T22:28:00.431Z,48
2023-04-30T22:32:00.674Z,48
2023-04-30T22:36:00.430Z,47
2023-04-30T22:40:00.443Z,46
2023-04-30T22:44:00.447Z,50
2023-04-30T22:48:02.003Z,54
2023-04-30T22:52:00.440Z,52
2023-04-30T22:56:00.444Z,54
2023-04-30T23:00:00.444Z,52
2023-04-30T23:04:00.471Z,51
2023-04-30T23:08:00.428Z,54
2023-04-30T23:12:00.454Z,49
2023-04-30T23:16:00.425Z,46
2023-04-30T23:20:00.453Z,44
2023-04-30T23:24:00.477Z,46
2023-04-30T23:28:00.492Z,45
2023-04-30T23:32:00.483Z,47
2023-04-30T23:36:00.436Z,44
2023-04-30T23:40:00.451Z,45
2023-04-30T23:44:00.461Z,44
2023-04-30T23:48:00.550Z,45
2023-04-30T23:52:00.456Z,44
2023-04-30T23:56:00.454Z,43
